Time;durP1;ratioP1;P1;durP2;ratioP2;P2;SDS_P1;SDS_P2;PMS_P1;PMS_P2;Temp;Humidity;BMP_temperature;BMP_pressure;BME280_temperature;BME280_humidity;BME280_pressure;Samples;Min_cycle;Max_cycle;Signal;HPM_P1;HPM_P2
2023/10/30 05:00:35;;;;;;;2.33;2.13;;;14.40;85.60;;;;;;5975482;23;20377;-77
2023/10/30 05:03:02;;;;;;;2.00;1.80;;;14.40;85.50;;;;;;4995279;28;20457;-76
2023/10/30 05:05:30;;;;;;;2.10;1.90;;;14.40;85.50;;;;;;4995152;28;20532;-77
2023/10/30 05:07:56;;;;;;;2.50;1.70;;;14.40;85.40;;;;;;4995167;28;20531;-77
2023/10/30 05:10:23;;;;;;;2.00;1.80;;;14.40;85.20;;;;;;4995231;28;20449;-76
2023/10/30 05:12:49;;;;;;;2.10;1.83;;;14.40;85.20;;;;;;4995108;28;20449;-77
2023/10/30 05:15:17;;;;;;;2.27;2.07;;;14.40;85.20;;;;;;4995807;28;20449;-76
2023/10/30 05:17:45;;;;;;;2.23;2.03;;;14.40;85.20;;;;;;4994971;28;20456;-76
2023/10/30 05:20:12;;;;;;;1.77;1.67;;;14.40;85.20;;;;;;4994894;28;20452;-76
2023/10/30 05:22:39;;;;;;;1.70;1.50;;;14.40;84.90;;;;;;4994836;28;20503;-76
2023/10/30 05:25:06;;;;;;;1.80;1.70;;;14.40;84.90;;;;;;4995644;28;20468;-76
2023/10/30 05:27:33;;;;;;;2.10;1.87;;;14.40;84.80;;;;;;4994462;28;20434;-76
2023/10/30 05:30:00;;;;;;;2.17;1.90;;;14.30;84.60;;;;;;4994784;28;20441;-76
2023/10/30 05:32:27;;;;;;;1.70;1.60;;;14.30;84.50;;;;;;4994711;28;20488;-76
2023/10/30 05:34:55;;;;;;;2.27;1.77;;;14.30;84.30;;;;;;4994751;28;20445;-76
2023/10/30 05:37:22;;;;;;;2.50;1.93;;;14.30;84.30;;;;;;4994658;28;20452;-77
2023/10/30 05:39:49;;;;;;;2.00;1.80;;;14.20;84.10;;;;;;4994617;28;20452;-76
2023/10/30 05:42:16;;;;;;;2.17;1.83;;;14.20;84.00;;;;;;4994302;28;20461;-76
2023/10/30 05:44:43;;;;;;;2.23;2.03;;;14.20;84.10;;;;;;4994346;28;20441;-76
2023/10/30 05:47:10;;;;;;;2.07;1.87;;;14.10;84.00;;;;;;4994286;28;20449;-76
2023/10/30 05:49:36;;;;;;;2.40;1.70;;;14.10;83.90;;;;;;4994417;28;20484;-76
2023/10/30 05:52:05;;;;;;;2.40;2.00;;;14.10;83.90;;;;;;4994068;28;20986;-77
2023/10/30 05:54:31;;;;;;;3.07;2.23;;;14.10;83.70;;;;;;4994459;28;20449;-76
2023/10/30 05:56:58;;;;;;;2.30;2.10;;;14.00;83.60;;;;;;4994447;28;20448;-76
2023/10/30 05:59:25;;;;;;;2.43;2.23;;;14.00;83.40;;;;;;4994370;28;20441;-76
2023/10/30 06:01:51;;;;;;;1.83;1.73;;;13.90;83.50;;;;;;5000353;28;20477;-76
2023/10/30 06:04:18;;;;;;;2.33;1.67;;;13.90;83.50;;;;;;4994255;28;20934;-76
2023/10/30 06:06:45;;;;;;;2.27;2.07;;;13.90;83.50;;;;;;4994185;28;20949;-76
2023/10/30 06:09:13;;;;;;;2.83;2.63;;;13.80;83.50;;;;;;4994025;28;20886;-76
2023/10/30 06:11:40;;;;;;;2.40;2.20;;;13.80;83.80;;;;;;4994223;28;20461;-76
2023/10/30 06:14:06;;;;;;;2.60;2.40;;;13.70;83.80;;;;;;4994276;28;20445;-76
2023/10/30 06:16:33;;;;;;;2.93;2.73;;;13.60;84.70;;;;;;4994697;28;20444;-76
2023/10/30 06:19:00;;;;;;;2.60;2.40;;;13.70;84.60;;;;;;4994471;28;20985;-76
2023/10/30 06:21:26;;;;;;;3.73;2.60;;;13.70;84.10;;;;;;4994155;28;21040;-76
2023/10/30 06:23:53;;;;;;;2.33;2.13;;;13.70;84.30;;;;;;4994175;28;20449;-75
2023/10/30 06:26:21;;;;;;;2.90;2.70;;;13.70;84.60;;;;;;4994101;28;20449;-76
2023/10/30 06:28:48;;;;;;;4.00;2.80;;;13.50;85.50;;;;;;4993920;28;20484;-76
2023/10/30 06:31:15;;;;;;;3.07;2.80;;;13.20;87.40;;;;;;4993873;28;20469;-76
2023/10/30 06:33:42;;;;;;;2.80;2.50;;;13.00;88.70;;;;;;4993740;28;21050;-76
2023/10/30 06:36:09;;;;;;;2.67;2.47;;;13.10;88.20;;;;;;4993938;28;20446;-76
2023/10/30 06:38:37;;;;;;;2.63;2.43;;;13.00;88.80;;;;;;4993881;28;20476;-76
2023/10/30 06:41:05;;;;;;;2.87;2.27;;;13.40;89.10;;;;;;4994520;28;20496;-76
2023/10/30 06:43:33;;;;;;;2.37;2.17;;;14.00;87.60;;;;;;4994007;28;20456;-76
2023/10/30 06:46:00;;;;;;;2.57;2.37;;;14.60;84.90;;;;;;4993550;28;20964;-76
2023/10/30 06:48:27;;;;;;;2.10;1.90;;;15.30;83.10;;;;;;4993654;28;21057;-76
2023/10/30 06:50:54;;;;;;;2.20;2.00;;;16.30;80.70;;;;;;4993849;28;20461;-76
2023/10/30 06:53:21;;;;;;;2.10;1.90;;;17.20;76.80;;;;;;4993732;28;20453;-76
2023/10/30 06:55:48;;;;;;;2.17;1.97;;;18.10;74.20;;;;;;4993814;28;20476;-77
2023/10/30 06:58:15;;;;;;;2.03;1.83;;;18.40;72.80;;;;;;4993908;28;20492;-77
2023/10/30 07:00:43;;;;;;;2.23;2.00;;;19.30;70.70;;;;;;4993725;28;20519;-77
2023/10/30 07:03:09;;;;;;;2.80;2.00;;;20.30;68.10;;;;;;4993794;28;20437;-77
2023/10/30 07:05:36;;;;;;;2.20;2.00;;;21.60;65.60;;;;;;4994531;28;20456;-75
2023/10/30 07:08:04;;;;;;;1.90;1.70;;;22.40;62.40;;;;;;4994030;28;20449;-76
2023/10/30 07:10:31;;;;;;;2.13;1.93;;;23.10;61.50;;;;;;4996340;28;20452;-77
2023/10/30 07:12:57;;;;;;;1.80;1.60;;;23.80;58.60;;;;;;4995120;28;20472;-78
2023/10/30 07:15:26;;;;;;;2.00;1.80;;;24.40;58.20;;;;;;5015582;28;20540;-77
2023/10/30 07:17:55;;;;;;;2.13;1.93;;;25.10;55.70;;;;;;5011932;28;20445;-78
2023/10/30 07:20:22;;;;;;;2.30;2.10;;;25.20;55.10;;;;;;5005017;28;20441;-79
2023/10/30 07:22:48;;;;;;;2.13;1.93;;;25.20;55.00;;;;;;5004885;28;20481;-78
2023/10/30 07:25:15;;;;;;;1.97;1.77;;;25.50;55.10;;;;;;5002530;28;20445;-78
2023/10/30 07:27:42;;;;;;;1.93;1.80;;;26.10;53.10;;;;;;4998092;28;20452;-79
2023/10/30 07:30:10;;;;;;;2.17;1.70;;;26.80;52.00;;;;;;4998108;28;20488;-78
2023/10/30 07:32:37;;;;;;;1.70;1.60;;;27.30;51.60;;;;;;4997618;28;20472;-75
2023/10/30 07:35:06;;;;;;;2.03;1.63;;;27.50;49.90;;;;;;4998065;28;20441;-75
2023/10/30 07:37:34;;;;;;;1.80;1.60;;;27.50;49.50;;;;;;4997984;28;20445;-78
2023/10/30 07:40:00;;;;;;;1.87;1.67;;;28.00;49.30;;;;;;4997770;28;20438;-78
2023/10/30 07:42:27;;;;;;;1.77;1.67;;;27.70;49.20;;;;;;4997550;28;20472;-77
2023/10/30 07:44:54;;;;;;;1.70;1.43;;;27.00;50.20;;;;;;4997547;28;20460;-75
2023/10/30 07:47:20;;;;;;;2.10;1.90;;;27.70;49.90;;;;;;4997724;28;20500;-79
2023/10/30 07:49:47;;;;;;;1.70;1.43;;;28.10;48.80;;;;;;4997927;28;20484;-78
2023/10/30 07:52:15;;;;;;;2.10;1.90;;;27.90;48.50;;;;;;4998241;28;20496;-77
2023/10/30 07:54:42;;;;;;;2.23;2.03;;;27.00;50.50;;;;;;4997684;28;20452;-78
2023/10/30 07:57:09;;;;;;;2.23;2.03;;;26.30;52.00;;;;;;4997462;28;20448;-77
2023/10/30 07:59:36;;;;;;;2.47;1.90;;;26.00;52.80;;;;;;4997522;28;20457;-79
2023/10/30 08:02:03;;;;;;;2.43;2.23;;;25.20;53.60;;;;;;4997212;28;20489;-78
2023/10/30 08:04:30;;;;;;;2.27;2.07;;;24.00;56.10;;;;;;4998343;28;20825;-77
2023/10/30 08:06:57;;;;;;;2.57;1.90;;;23.40;57.70;;;;;;4997537;28;20480;-78
2023/10/30 08:09:25;;;;;;;2.10;1.90;;;22.00;60.90;;;;;;4997000;28;20489;-77
2023/10/30 08:11:52;;;;;;;2.20;1.90;;;20.70;63.80;;;;;;4997186;28;20472;-77
2023/10/30 08:14:18;;;;;;;2.03;1.83;;;19.70;67.00;;;;;;4997517;28;20449;-78
2023/10/30 08:16:45;;;;;;;2.10;1.90;;;18.70;70.10;;;;;;4997764;28;20453;-76
2023/10/30 08:19:12;;;;;;;2.10;1.90;;;18.30;71.30;;;;;;4998138;28;20877;-77
2023/10/30 08:21:38;;;;;;;2.50;2.20;;;18.00;72.70;;;;;;4998271;28;20873;-78
2023/10/30 08:24:06;;;;;;;1.70;1.50;;;17.90;73.10;;;;;;4998622;28;20448;-77
2023/10/30 08:26:34;;;;;;;2.00;1.70;;;17.80;72.90;;;;;;4998402;28;20524;-77
2023/10/30 08:29:01;;;;;;;2.53;2.10;;;17.40;74.00;;;;;;4996951;28;20481;-77
2023/10/30 08:31:27;;;;;;;2.20;2.00;;;17.10;75.70;;;;;;4998416;28;20480;-77
2023/10/30 08:33:57;;;;;;;1.83;1.63;;;16.90;76.20;;;;;;4997467;28;20449;-78
2023/10/30 08:36:24;;;;;;;1.63;1.40;;;16.70;76.10;;;;;;4996647;28;20887;-78
2023/10/30 08:38:50;;;;;;;1.90;1.57;;;16.30;77.10;;;;;;4997971;28;20437;-77
2023/10/30 08:41:17;;;;;;;1.73;1.50;;;16.00;78.00;;;;;;4998657;28;20837;-78
2023/10/30 08:43:46;;;;;;;1.70;1.50;;;15.70;78.60;;;;;;4997115;28;20453;-78
2023/10/30 08:46:17;;;;;;;1.90;1.60;;;15.70;80.10;;;;;;4997866;28;20445;-78
2023/10/30 08:48:43;;;;;;;2.63;1.67;;;15.90;79.20;;;;;;4996729;28;20501;-78
2023/10/30 08:51:10;;;;;;;2.10;1.60;;;16.10;79.20;;;;;;4996735;28;20481;-77
2023/10/30 08:53:37;;;;;;;2.00;1.70;;;16.10;78.20;;;;;;4998858;28;20449;-77
2023/10/30 08:56:05;;;;;;;1.90;1.50;;;16.10;78.80;;;;;;4997427;28;20530;-77
2023/10/30 08:58:32;;;;;;;2.03;1.43;;;16.00;78.50;;;;;;4999203;28;20944;-78
2023/10/30 09:01:00;;;;;;;3.10;2.00;;;15.90;79.10;;;;;;4995979;28;20889;-76
2023/10/30 09:03:27;;;;;;;2.50;1.77;;;15.80;79.20;;;;;;4995904;28;20531;-77
2023/10/30 09:05:53;;;;;;;1.70;1.53;;;15.80;79.90;;;;;;4996915;28;20445;-77
2023/10/30 09:08:20;;;;;;;2.03;1.83;;;15.90;79.80;;;;;;4996181;28;20862;-77
2023/10/30 09:10:47;;;;;;;1.60;1.40;;;16.00;79.40;;;;;;4996589;28;20835;-77
2023/10/30 09:13:13;;;;;;;1.80;1.50;;;16.00;79.20;;;;;;4996217;28;20448;-78
2023/10/30 09:15:40;;;;;;;1.97;1.77;;;16.10;79.30;;;;;;4997472;28;20450;-77
2023/10/30 09:18:08;;;;;;;3.13;2.30;;;16.00;79.10;;;;;;4995632;28;20457;-70
2023/10/30 09:20:35;;;;;;;2.00;1.50;;;16.10;80.40;;;;;;4994749;28;20445;-70
2023/10/30 09:23:01;;;;;;;2.00;1.80;;;16.30;80.50;;;;;;4994764;28;20818;-70
2023/10/30 09:25:28;;;;;;;2.50;2.30;;;16.40;80.00;;;;;;4994702;28;20452;-70
2023/10/30 09:27:55;;;;;;;2.00;1.80;;;16.60;79.70;;;;;;4994625;28;20457;-70
2023/10/30 09:30:27;;;;;;;2.20;1.77;;;16.60;79.70;;;;;;4995369;28;20485;-71
2023/10/30 09:32:54;;;;;;;2.07;1.70;;;16.80;79.10;;;;;;4994800;28;20438;-70
2023/10/30 09:35:22;;;;;;;2.20;2.00;;;17.00;78.50;;;;;;4994218;28;20448;-71
2023/10/30 09:37:48;;;;;;;2.40;2.20;;;17.10;78.30;;;;;;4994522;28;20445;-71
2023/10/30 09:40:15;;;;;;;2.50;2.07;;;17.00;78.50;;;;;;4995303;28;20445;-76
2023/10/30 09:42:51;;;;;;;2.23;2.00;;;17.00;77.90;;;;;;4995831;28;20469;-78
2023/10/30 09:45:19;;;;;;;2.13;1.93;;;16.90;78.10;;;;;;5001940;28;20433;-76
2023/10/30 09:47:46;;;;;;;2.40;2.20;;;16.70;78.20;;;;;;4996188;28;20456;-76
2023/10/30 09:50:13;;;;;;;3.60;2.10;;;16.50;79.10;;;;;;4994794;28;20861;-76
2023/10/30 09:52:41;;;;;;;2.70;2.20;;;16.50;79.10;;;;;;4994357;28;20520;-77
2023/10/30 09:55:11;;;;;;;3.13;1.80;;;16.70;79.30;;;;;;4995023;28;20449;-77
2023/10/30 09:57:38;;;;;;;2.00;1.73;;;16.60;79.10;;;;;;4994429;28;20551;-77
2023/10/30 10:00:06;;;;;;;2.57;2.30;;;16.60;78.70;;;;;;4994491;28;20441;-76
2023/10/30 10:02:33;;;;;;;4.10;1.77;;;16.60;78.60;;;;;;4995010;28;20473;-78
2023/10/30 10:05:00;;;;;;;3.07;1.90;;;16.60;78.60;;;;;;4994802;28;20444;-78
2023/10/30 10:07:27;;;;;;;1.80;1.60;;;16.60;78.90;;;;;;4995013;28;20977;-76
2023/10/30 10:09:59;;;;;;;2.17;1.67;;;16.70;78.10;;;;;;4994884;28;20539;-75
2023/10/30 10:12:26;;;;;;;1.80;1.40;;;16.60;78.00;;;;;;4995084;28;20561;-76
2023/10/30 10:14:52;;;;;;;2.07;1.87;;;16.60;78.50;;;;;;4994914;28;20445;-75
2023/10/30 10:17:19;;;;;;;2.00;1.33;;;16.60;78.60;;;;;;4994953;28;20441;-75
2023/10/30 10:19:47;;;;;;;2.30;1.83;;;16.60;78.20;;;;;;4995021;28;20436;-75
2023/10/30 10:22:28;;;;;;;1.50;1.33;;;16.70;77.20;;;;;;4994373;28;20468;-76
2023/10/30 10:24:55;;;;;;;2.40;1.63;;;16.70;78.30;;;;;;4994487;28;20469;-77
2023/10/30 10:27:23;;;;;;;2.50;1.97;;;16.70;78.00;;;;;;4994643;28;20457;-76
2023/10/30 10:29:54;;;;;;;2.77;2.10;;;16.80;77.40;;;;;;4994510;28;20863;-76
2023/10/30 10:32:23;;;;;;;4.57;2.33;;;16.80;78.30;;;;;;4994545;28;20523;-75
2023/10/30 10:34:49;;;;;;;2.10;1.90;;;16.80;78.40;;;;;;4995130;28;20452;-75
2023/10/30 10:37:20;;;;;;;2.33;2.10;;;16.90;78.90;;;;;;4994848;28;20457;-76
2023/10/30 10:39:56;;;;;;;1.90;1.70;;;16.90;78.00;;;;;;4994903;28;20441;-76
2023/10/30 10:42:26;;;;;;;2.40;2.20;;;16.80;78.50;;;;;;4994600;28;20985;-77
2023/10/30 10:44:54;;;;;;;4.00;1.93;;;16.80;78.80;;;;;;4994289;28;20825;-76
2023/10/30 10:47:22;;;;;;;2.10;1.87;;;16.80;78.40;;;;;;4994770;28;20480;-76
2023/10/30 10:49:49;;;;;;;1.90;1.50;;;16.70;78.00;;;;;;4995608;28;20480;-77
2023/10/30 10:52:19;;;;;;;2.13;1.77;;;16.60;78.50;;;;;;4997947;28;20476;-76
2023/10/30 10:54:53;;;;;;;2.40;1.83;;;16.70;78.30;;;;;;4999326;28;20433;-75
2023/10/30 10:57:21;;;;;;;3.50;2.30;;;16.90;78.20;;;;;;4998743;28;20440;-77
2023/10/30 10:59:55;;;;;;;3.13;2.60;;;16.80;78.10;;;;;;4999569;28;20441;-77
2023/10/30 11:02:27;;;;;;;5.93;5.43;;;17.00;78.30;;;;;;4998192;28;20653;-76
2023/10/30 11:04:54;;;;;;;4.60;1.83;;;16.80;77.90;;;;;;4998981;28;20429;-75
2023/10/30 11:07:28;;;;;;;3.20;1.60;;;16.70;78.40;;;;;;4997906;28;20799;-76
2023/10/30 11:10:01;;;;;;;1.60;1.20;;;16.90;78.30;;;;;;4998440;28;20476;-75
2023/10/30 11:12:42;;;;;;;1.67;1.43;;;16.80;78.50;;;;;;4998265;28;20473;-76
2023/10/30 11:15:19;;;;;;;2.33;1.37;;;16.70;78.70;;;;;;5012937;23;20425;-72
2023/10/30 11:18:13;;;;;;;1.53;1.10;;;16.80;78.90;;;;;;4977471;28;20488;-75
2023/10/30 11:20:41;;;;;;;1.50;1.10;;;16.70;78.60;;;;;;4977321;28;20919;-74
2023/10/30 11:23:09;;;;;;;1.50;1.00;;;16.70;79.00;;;;;;4977183;28;20529;-71
2023/10/30 11:25:46;;;;;;;2.53;1.60;;;16.70;78.90;;;;;;4977432;28;20493;-75
2023/10/30 11:28:13;;;;;;;1.40;0.90;;;16.60;78.90;;;;;;4977419;28;20446;-74
2023/10/30 11:30:43;;;;;;;1.70;1.03;;;16.60;79.40;;;;;;4977068;28;21045;-74
2023/10/30 11:33:18;;;;;;;1.80;1.07;;;16.60;78.90;;;;;;4977464;28;20449;-74
2023/10/30 11:35:46;;;;;;;3.33;1.20;;;16.70;79.00;;;;;;4977299;28;20516;-74
2023/10/30 11:38:16;;;;;;;1.40;0.97;;;16.80;78.50;;;;;;4977302;28;20453;-74
2023/10/30 11:40:43;;;;;;;1.40;0.90;;;16.90;78.00;;;;;;4977217;28;20433;-75
2023/10/30 11:43:10;;;;;;;2.10;1.20;;;16.80;78.90;;;;;;4977284;28;20468;-75
2023/10/30 11:45:40;;;;;;;2.03;0.90;;;16.90;78.30;;;;;;4976857;28;20895;-75
2023/10/30 11:48:08;;;;;;;1.60;0.80;;;17.00;77.90;;;;;;4977558;28;20468;-74
2023/10/30 11:50:36;;;;;;;3.70;1.87;;;17.00;77.00;;;;;;4977067;28;20485;-75
2023/10/30 11:53:10;;;;;;;3.50;1.00;;;16.90;76.80;;;;;;4977073;28;20454;-74
2023/10/30 11:55:37;;;;;;;1.30;0.80;;;16.80;76.90;;;;;;4976907;28;20473;-75
2023/10/30 11:58:04;;;;;;;1.77;0.80;;;16.90;76.80;;;;;;4976995;28;20908;-74
2023/10/30 12:00:31;;;;;;;3.30;1.43;;;17.00;76.40;;;;;;4976943;28;20446;-74
2023/10/30 12:02:58;;;;;;;1.60;0.90;;;16.90;76.30;;;;;;4976629;28;20465;-73
2023/10/30 12:05:27;;;;;;;1.60;1.07;;;17.00;76.00;;;;;;4976834;28;20488;-74
2023/10/30 12:07:54;;;;;;;2.00;0.90;;;16.90;75.80;;;;;;4985998;28;20465;-74
2023/10/30 12:10:22;;;;;;;1.50;0.90;;;17.10;75.40;;;;;;4997407;28;20574;-74
2023/10/30 12:12:48;;;;;;;2.50;1.00;;;17.30;74.90;;;;;;4980500;28;20464;-74
2023/10/30 12:15:15;;;;;;;1.67;0.90;;;17.40;74.80;;;;;;4976718;28;20987;-75
2023/10/30 12:17:42;;;;;;;1.40;0.80;;;17.50;75.30;;;;;;4976790;28;20435;-75
2023/10/30 12:20:09;;;;;;;2.13;0.80;;;17.90;74.90;;;;;;4976953;28;20446;-75
2023/10/30 12:22:41;;;;;;;1.30;0.67;;;17.80;73.60;;;;;;4976568;28;20446;-75
2023/10/30 12:25:08;;;;;;;1.30;0.73;;;17.80;73.80;;;;;;4976492;28;20441;-74
2023/10/30 12:27:35;;;;;;;3.30;0.80;;;17.70;74.00;;;;;;4976110;28;20808;-75
2023/10/30 12:30:10;;;;;;;1.97;1.03;;;17.60;73.70;;;;;;4976337;28;20485;-74
2023/10/30 12:32:36;;;;;;;1.30;0.90;;;17.50;73.80;;;;;;4976419;28;20465;-74
2023/10/30 12:35:10;;;;;;;1.40;0.80;;;17.50;73.70;;;;;;4976085;28;20446;-75
2023/10/30 12:37:40;;;;;;;1.60;0.80;;;17.50;73.80;;;;;;4976396;28;20915;-75
2023/10/30 12:40:08;;;;;;;1.30;0.80;;;17.40;73.70;;;;;;4976829;28;20450;-75
2023/10/30 12:42:36;;;;;;;1.60;0.67;;;17.30;74.10;;;;;;4976454;28;20458;-75
2023/10/30 12:45:11;;;;;;;1.83;0.87;;;17.30;74.30;;;;;;4976242;28;20453;-76
2023/10/30 12:47:38;;;;;;;1.60;0.90;;;17.20;74.70;;;;;;4976508;28;20486;-75
2023/10/30 12:50:06;;;;;;;1.53;0.77;;;17.10;74.70;;;;;;4976001;28;20543;-73
2023/10/30 12:52:33;;;;;;;1.30;0.70;;;17.20;75.20;;;;;;4976121;28;20453;-74
2023/10/30 12:55:01;;;;;;;1.50;0.80;;;17.00;75.00;;;;;;4975712;28;20944;-75
2023/10/30 12:57:28;;;;;;;1.97;0.90;;;17.10;75.30;;;;;;4975992;28;20453;-77
2023/10/30 12:59:55;;;;;;;1.33;0.80;;;17.20;75.60;;;;;;4975961;28;20450;-74
2023/10/30 13:02:22;;;;;;;1.93;0.90;;;17.30;73.90;;;;;;4976037;28;20944;-75
2023/10/30 13:04:48;;;;;;;1.90;0.90;;;17.20;74.60;;;;;;4976068;28;20457;-75
2023/10/30 13:07:16;;;;;;;1.60;0.87;;;17.10;74.70;;;;;;4975851;28;20466;-75
2023/10/30 13:09:43;;;;;;;1.70;0.80;;;17.10;74.70;;;;;;4976039;28;20474;-74
2023/10/30 13:12:11;;;;;;;1.97;0.90;;;16.90;75.10;;;;;;4975682;28;20995;-75
2023/10/30 13:14:38;;;;;;;1.70;1.10;;;16.90;75.70;;;;;;4975551;28;20446;-74
2023/10/30 13:17:05;;;;;;;1.40;0.80;;;16.90;75.80;;;;;;4975445;28;20481;-73
2023/10/30 13:19:32;;;;;;;2.50;0.93;;;17.00;75.20;;;;;;4975722;28;20446;-74
2023/10/30 13:21:59;;;;;;;1.40;0.93;;;16.90;75.80;;;;;;4975832;28;20457;-73
2023/10/30 13:24:26;;;;;;;1.53;1.00;;;16.90;75.50;;;;;;4975646;28;20947;-74
2023/10/30 13:26:53;;;;;;;1.70;1.17;;;16.90;75.80;;;;;;4975673;28;20832;-74
2023/10/30 13:29:21;;;;;;;4.90;1.30;;;17.00;75.70;;;;;;4975813;28;20451;-73
2023/10/30 13:31:48;;;;;;;1.60;1.00;;;17.10;75.70;;;;;;4975283;28;21025;-74
2023/10/30 13:34:16;;;;;;;1.50;0.87;;;17.10;75.30;;;;;;4975411;28;20824;-74
2023/10/30 13:36:42;;;;;;;2.07;1.10;;;16.90;75.80;;;;;;4975593;28;20568;-75
2023/10/30 13:39:09;;;;;;;2.10;1.20;;;16.80;76.10;;;;;;4975996;28;20928;-73
2023/10/30 13:41:36;;;;;;;7.17;1.07;;;16.80;75.90;;;;;;4975829;28;20947;-73
2023/10/30 13:44:03;;;;;;;1.57;0.90;;;16.90;75.90;;;;;;4976093;28;20447;-74
2023/10/30 13:46:31;;;;;;;1.53;1.00;;;17.00;75.80;;;;;;4975742;28;20465;-74
2023/10/30 13:48:58;;;;;;;4.00;0.93;;;16.90;75.60;;;;;;4975473;28;20449;-74
2023/10/30 13:51:25;;;;;;;1.90;1.10;;;16.80;76.50;;;;;;4975345;28;20877;-73
2023/10/30 13:53:54;;;;;;;1.63;0.80;;;16.70;76.40;;;;;;4975917;28;20501;-73
2023/10/30 13:56:21;;;;;;;1.73;0.90;;;16.70;75.70;;;;;;4974939;28;20560;-73
2023/10/30 13:58:49;;;;;;;1.43;0.93;;;16.50;76.50;;;;;;4975340;28;20457;-73
2023/10/30 14:01:17;;;;;;;1.47;0.93;;;16.30;77.80;;;;;;4975119;28;20497;-73
2023/10/30 14:03:45;;;;;;;1.60;1.10;;;16.40;78.30;;;;;;4974998;28;20453;-74
2023/10/30 14:06:12;;;;;;;2.03;1.37;;;16.50;77.60;;;;;;4974916;28;20466;-73
2023/10/30 14:08:39;;;;;;;1.80;1.30;;;16.40;77.90;;;;;;4974991;28;20449;-73
2023/10/30 14:11:05;;;;;;;1.60;1.20;;;16.40;77.90;;;;;;4975072;28;20485;-72
2023/10/30 14:13:32;;;;;;;2.10;0.90;;;16.50;77.90;;;;;;4974868;28;20442;-73
2023/10/30 14:16:00;;;;;;;3.63;1.73;;;16.40;77.70;;;;;;4974488;28;20540;-73
2023/10/30 14:18:27;;;;;;;2.03;1.20;;;16.30;78.20;;;;;;4974784;28;20461;-74
2023/10/30 14:20:55;;;;;;;1.47;1.00;;;16.20;78.40;;;;;;4974730;28;20453;-71
2023/10/30 14:23:21;;;;;;;1.77;1.20;;;16.30;78.40;;;;;;4974731;28;20457;-74
2023/10/30 14:25:48;;;;;;;5.93;1.20;;;16.50;77.90;;;;;;4973879;28;20473;-73
2023/10/30 14:28:15;;;;;;;1.53;1.00;;;16.50;77.80;;;;;;4974721;28;20475;-74
2023/10/30 14:30:41;;;;;;;3.00;1.10;;;16.30;78.60;;;;;;4974612;28;20485;-74
2023/10/30 14:33:10;;;;;;;2.60;1.50;;;16.20;78.80;;;;;;4974717;28;20450;-74
2023/10/30 14:35:37;;;;;;;3.50;1.47;;;16.20;79.00;;;;;;4974814;28;20474;-74
2023/10/30 14:38:05;;;;;;;2.17;1.00;;;16.20;78.90;;;;;;4974740;28;20553;-73
2023/10/30 14:40:32;;;;;;;1.50;1.00;;;16.10;79.00;;;;;;4974606;28;20458;-73
2023/10/30 14:42:59;;;;;;;1.80;1.03;;;16.10;79.00;;;;;;4974579;28;20449;-74
2023/10/30 14:45:26;;;;;;;2.97;1.10;;;16.20;78.80;;;;;;4974482;28;20470;-73
2023/10/30 14:47:52;;;;;;;2.83;1.20;;;16.20;78.90;;;;;;4974638;28;20446;-73
2023/10/30 14:50:19;;;;;;;2.83;1.20;;;16.40;78.60;;;;;;4974542;28;20442;-72
2023/10/30 14:52:46;;;;;;;1.70;1.20;;;16.50;78.00;;;;;;4974340;28;20489;-74
2023/10/30 14:55:14;;;;;;;2.37;1.30;;;16.70;78.00;;;;;;4974323;28;20453;-74
2023/10/30 14:57:41;;;;;;;2.13;1.20;;;16.80;77.80;;;;;;4974424;28;20877;-74
2023/10/30 15:00:09;;;;;;;2.67;1.60;;;16.90;77.30;;;;;;4974381;28;20468;-73
2023/10/30 15:02:37;;;;;;;2.80;1.30;;;16.90;77.70;;;;;;4974217;28;20473;-74
2023/10/30 15:05:04;;;;;;;2.00;1.10;;;17.00;77.40;;;;;;4974382;28;20461;-74
2023/10/30 15:07:30;;;;;;;2.80;2.13;;;17.00;76.70;;;;;;4974496;28;20453;-74
2023/10/30 15:09:57;;;;;;;2.17;1.23;;;17.10;76.80;;;;;;4974186;28;20450;-74
2023/10/30 15:12:25;;;;;;;2.33;1.70;;;17.20;76.70;;;;;;4974216;28;20488;-74
2023/10/30 15:14:52;;;;;;;2.23;1.30;;;17.30;76.60;;;;;;4974295;28;20454;-74
2023/10/30 15:17:18;;;;;;;2.10;1.40;;;17.30;76.50;;;;;;4974010;28;20485;-71
2023/10/30 15:19:46;;;;;;;2.00;1.20;;;17.20;76.60;;;;;;4973957;28;20978;-73
2023/10/30 15:22:13;;;;;;;1.80;1.17;;;17.20;76.80;;;;;;4973888;28;20454;-73
2023/10/30 15:24:40;;;;;;;1.50;1.07;;;17.20;77.30;;;;;;4973855;28;20446;-73
2023/10/30 15:27:07;;;;;;;1.90;1.10;;;17.10;77.80;;;;;;4973778;28;20520;-73
2023/10/30 15:29:35;;;;;;;1.60;1.03;;;17.10;78.40;;;;;;4973864;28;20501;-73
2023/10/30 15:32:02;;;;;;;2.00;1.43;;;17.00;78.60;;;;;;4973858;28;20486;-74
2023/10/30 15:34:28;;;;;;;1.70;1.20;;;17.00;78.80;;;;;;4974135;28;20524;-73
2023/10/30 15:36:55;;;;;;;2.00;1.40;;;17.10;78.50;;;;;;4974219;28;20462;-73
2023/10/30 15:39:22;;;;;;;2.33;1.23;;;17.20;78.50;;;;;;4977820;28;20453;-74
2023/10/30 15:41:48;;;;;;;2.33;1.53;;;17.20;78.50;;;;;;4977383;28;20442;-74
2023/10/30 15:44:15;;;;;;;4.33;1.57;;;17.20;78.50;;;;;;4977294;28;20975;-74
2023/10/30 15:46:43;;;;;;;2.37;1.30;;;17.20;78.50;;;;;;4977474;28;20470;-73
2023/10/30 15:49:10;;;;;;;1.90;1.60;;;17.20;78.50;;;;;;4977356;28;20450;-73
2023/10/30 15:51:36;;;;;;;2.47;1.43;;;17.20;78.80;;;;;;4977180;28;20509;-72
2023/10/30 15:54:03;;;;;;;2.00;1.37;;;17.20;78.80;;;;;;4977396;28;20454;-73
2023/10/30 15:56:30;;;;;;;2.60;1.40;;;17.20;78.90;;;;;;4977464;28;20520;-74
2023/10/30 15:58:56;;;;;;;2.20;1.53;;;17.10;78.60;;;;;;4977335;28;20446;-73
2023/10/30 16:01:23;;;;;;;2.40;1.50;;;17.10;78.70;;;;;;4977219;28;20477;-73
2023/10/30 16:03:52;;;;;;;1.77;1.37;;;17.00;78.50;;;;;;4977303;28;20453;-75
2023/10/30 16:06:19;;;;;;;1.67;1.00;;;17.00;78.70;;;;;;4976606;28;21021;-73
2023/10/30 16:08:45;;;;;;;1.43;0.93;;;17.00;78.50;;;;;;4977130;28;20450;-73
2023/10/30 16:11:12;;;;;;;2.10;1.00;;;16.90;78.50;;;;;;4977036;28;20473;-74
2023/10/30 16:13:39;;;;;;;2.47;1.30;;;16.80;78.20;;;;;;4976841;28;20442;-74
2023/10/30 16:16:06;;;;;;;1.27;0.80;;;16.70;78.60;;;;;;4976320;28;20482;-73
2023/10/30 16:18:33;;;;;;;1.33;0.90;;;16.80;78.60;;;;;;4976570;28;20453;-74
2023/10/30 16:21:01;;;;;;;1.60;1.00;;;16.80;78.30;;;;;;4976231;28;20442;-72
2023/10/30 16:23:29;;;;;;;1.30;0.70;;;16.70;78.50;;;;;;4976485;28;20812;-74
2023/10/30 16:25:56;;;;;;;1.30;0.90;;;16.60;79.00;;;;;;4976371;28;20528;-72
2023/10/30 16:28:22;;;;;;;1.90;1.00;;;16.60;78.70;;;;;;4976388;28;20446;-74
2023/10/30 16:30:49;;;;;;;1.40;1.00;;;16.60;79.40;;;;;;4976130;28;20958;-74
2023/10/30 16:33:17;;;;;;;4.03;1.87;;;16.60;79.70;;;;;;4976003;28;20490;-75
2023/10/30 16:35:45;;;;;;;1.43;1.07;;;16.60;79.70;;;;;;4976285;28;20903;-75
2023/10/30 16:38:13;;;;;;;1.83;1.20;;;16.60;80.20;;;;;;4976368;28;20446;-74
2023/10/30 16:40:39;;;;;;;1.73;1.07;;;16.50;79.70;;;;;;4976211;28;20453;-74
2023/10/30 16:43:06;;;;;;;1.50;1.23;;;16.40;79.90;;;;;;4976432;28;20439;-73
2023/10/30 16:45:33;;;;;;;2.03;1.10;;;16.40;80.20;;;;;;4976034;28;20478;-74
2023/10/30 16:48:00;;;;;;;1.87;1.23;;;16.50;80.20;;;;;;4975983;28;20504;-72
2023/10/30 16:50:26;;;;;;;2.23;1.10;;;16.40;80.60;;;;;;4975177;28;20453;-73
2023/10/30 16:52:53;;;;;;;1.40;1.07;;;16.30;80.90;;;;;;4975886;28;20482;-73
2023/10/30 16:55:21;;;;;;;1.57;1.10;;;16.30;81.50;;;;;;4975885;28;20521;-74
2023/10/30 16:57:48;;;;;;;1.90;1.10;;;16.20;82.00;;;;;;4975860;28;20446;-74
2023/10/30 17:00:15;;;;;;;2.10;1.20;;;16.00;80.90;;;;;;4975757;28;20804;-74
2023/10/30 17:02:42;;;;;;;1.87;1.40;;;15.90;81.10;;;;;;4975760;28;20444;-74
2023/10/30 17:05:09;;;;;;;1.50;1.10;;;15.90;81.30;;;;;;4975584;28;20453;-75
2023/10/30 17:07:35;;;;;;;1.70;1.10;;;15.80;80.90;;;;;;4975874;28;20454;-75
2023/10/30 17:10:02;;;;;;;2.30;1.20;;;15.80;81.80;;;;;;4975365;28;20446;-74
2023/10/30 17:12:30;;;;;;;4.50;1.30;;;15.80;81.70;;;;;;4975233;28;20842;-74
2023/10/30 17:14:57;;;;;;;1.50;1.00;;;15.80;81.80;;;;;;4975377;28;20449;-74
2023/10/30 17:17:23;;;;;;;1.60;1.30;;;15.80;81.50;;;;;;5014042;23;20524;-77
2023/10/30 17:19:50;;;;;;;2.50;1.57;;;15.70;81.30;;;;;;4995874;28;20444;-75
2023/10/30 17:22:17;;;;;;;1.50;1.10;;;15.70;81.90;;;;;;4995864;28;20452;-76
2023/10/30 17:24:43;;;;;;;1.87;1.30;;;15.60;82.50;;;;;;4996861;28;20441;-76
2023/10/30 17:27:13;;;;;;;1.43;1.10;;;15.50;83.20;;;;;;4996533;28;20465;-75
2023/10/30 17:29:41;;;;;;;2.10;1.20;;;15.50;83.30;;;;;;4996680;28;20473;-77
2023/10/30 17:32:07;;;;;;;1.60;1.27;;;15.40;84.10;;;;;;4995723;28;20854;-75
2023/10/30 17:34:34;;;;;;;2.00;1.33;;;15.40;84.20;;;;;;4996928;28;20449;-77
2023/10/30 17:37:01;;;;;;;2.00;1.60;;;15.30;84.30;;;;;;4996562;28;20469;-77
2023/10/30 17:39:27;;;;;;;3.50;1.53;;;15.20;84.80;;;;;;4995641;28;20444;-77
2023/10/30 17:41:54;;;;;;;1.60;1.17;;;15.20;85.00;;;;;;4995239;28;20818;-77
2023/10/30 17:44:20;;;;;;;1.60;1.13;;;15.10;85.30;;;;;;4995518;28;20445;-75
2023/10/30 17:46:48;;;;;;;1.53;1.00;;;15.10;84.90;;;;;;4997193;28;20477;-76
2023/10/30 17:49:15;;;;;;;1.63;1.10;;;15.00;85.80;;;;;;4997353;28;20500;-76